sensor_id;sensor_type;location;lat;lon;timestamp;temperature;humidity
65462;DHT22;53236;43.666;18.444;2023-04-03T00:02:14;5.10;99.90
65462;DHT22;53236;43.666;18.444;2023-04-03T00:04:40;5.10;99.90
65462;DHT22;53236;43.666;18.444;2023-04-03T00:07:06;5.10;99.90
65462;DHT22;53236;43.666;18.444;2023-04-03T00:09:32;5.00;99.90
65462;DHT22;53236;43.666;18.444;2023-04-03T00:11:57;5.10;99.90
65462;DHT22;53236;43.666;18.444;2023-04-03T00:14:23;5.10;99.90
65462;DHT22;53236;43.666;18.444;2023-04-03T00:16:49;5.20;99.90
65462;DHT22;53236;43.666;18.444;2023-04-03T00:19:14;5.20;99.90
65462;DHT22;53236;43.666;18.444;2023-04-03T00:21:40;5.30;99.90
65462;DHT22;53236;43.666;18.444;2023-04-03T00:24:06;5.30;99.90
65462;DHT22;53236;43.666;18.444;2023-04-03T00:26:32;5.40;99.90
65462;DHT22;53236;43.666;18.444;2023-04-03T00:28:58;5.40;99.90
65462;DHT22;53236;43.666;18.444;2023-04-03T00:31:23;5.50;99.90
65462;DHT22;53236;43.666;18.444;2023-04-03T00:33:49;5.40;99.90
65462;DHT22;53236;43.666;18.444;2023-04-03T00:36:15;5.30;99.90
65462;DHT22;53236;43.666;18.444;2023-04-03T00:38:41;5.30;99.90
65462;DHT22;53236;43.666;18.444;2023-04-03T00:41:07;5.40;99.90
65462;DHT22;53236;43.666;18.444;2023-04-03T00:43:33;5.40;99.90
65462;DHT22;53236;43.666;18.444;2023-04-03T00:45:59;5.40;99.90
65462;DHT22;53236;43.666;18.444;2023-04-03T00:48:41;5.50;99.90
65462;DHT22;53236;43.666;18.444;2023-04-03T00:51:13;5.50;99.90
65462;DHT22;53236;43.666;18.444;2023-04-03T00:54:09;5.50;99.90
65462;DHT22;53236;43.666;18.444;2023-04-03T00:56:36;5.50;99.90
65462;DHT22;53236;43.666;18.444;2023-04-03T00:59:13;5.60;99.90
65462;DHT22;53236;43.666;18.444;2023-04-03T01:01:40;5.50;99.90
65462;DHT22;53236;43.666;18.444;2023-04-03T01:04:29;5.50;99.90
65462;DHT22;53236;43.666;18.444;2023-04-03T01:06:59;5.50;99.90
65462;DHT22;53236;43.666;18.444;2023-04-03T01:09:27;5.50;99.90
65462;DHT22;53236;43.666;18.444;2023-04-03T01:11:53;5.50;99.90
65462;DHT22;53236;43.666;18.444;2023-04-03T01:14:19;5.50;99.90
65462;DHT22;53236;43.666;18.444;2023-04-03T01:16:54;5.50;99.90
65462;DHT22;53236;43.666;18.444;2023-04-03T01:19:21;5.30;99.90
65462;DHT22;53236;43.666;18.444;2023-04-03T01:22:14;5.40;99.90
65462;DHT22;53236;43.666;18.444;2023-04-03T01:24:41;5.30;99.90
65462;DHT22;53236;43.666;18.444;2023-04-03T01:27:09;5.30;99.90
65462;DHT22;53236;43.666;18.444;2023-04-03T01:29:36;5.30;99.90
65462;DHT22;53236;43.666;18.444;2023-04-03T01:32:03;5.40;99.90
65462;DHT22;53236;43.666;18.444;2023-04-03T01:34:30;5.40;99.90
65462;DHT22;53236;43.666;18.444;2023-04-03T01:36:56;5.40;99.90
65462;DHT22;53236;43.666;18.444;2023-04-03T01:39:23;5.40;99.90
65462;DHT22;53236;43.666;18.444;2023-04-03T01:41:48;5.40;99.90
65462;DHT22;53236;43.666;18.444;2023-04-03T01:44:14;5.50;99.90
65462;DHT22;53236;43.666;18.444;2023-04-03T01:46:40;5.50;99.90
65462;DHT22;53236;43.666;18.444;2023-04-03T01:49:07;5.40;99.90
65462;DHT22;53236;43.666;18.444;2023-04-03T01:51:33;5.50;99.90
65462;DHT22;53236;43.666;18.444;2023-04-03T01:53:59;5.50;99.90
65462;DHT22;53236;43.666;18.444;2023-04-03T01:56:24;5.50;99.90
65462;DHT22;53236;43.666;18.444;2023-04-03T01:58:50;5.40;99.90
65462;DHT22;53236;43.666;18.444;2023-04-03T02:01:16;5.40;99.90
65462;DHT22;53236;43.666;18.444;2023-04-03T02:03:42;5.40;99.90
65462;DHT22;53236;43.666;18.444;2023-04-03T02:06:08;5.40;99.90
65462;DHT22;53236;43.666;18.444;2023-04-03T02:08:33;5.40;99.90
65462;DHT22;53236;43.666;18.444;2023-04-03T02:10:59;5.40;99.90
65462;DHT22;53236;43.666;18.444;2023-04-03T02:13:25;5.50;99.90
65462;DHT22;53236;43.666;18.444;2023-04-03T02:15:50;5.50;99.90
65462;DHT22;53236;43.666;18.444;2023-04-03T02:18:17;5.50;99.90
65462;DHT22;53236;43.666;18.444;2023-04-03T02:20:42;5.60;99.90
65462;DHT22;53236;43.666;18.444;2023-04-03T02:23:08;5.50;99.90
65462;DHT22;53236;43.666;18.444;2023-04-03T02:25:34;5.50;99.90
65462;DHT22;53236;43.666;18.444;2023-04-03T02:28:00;5.50;99.90
65462;DHT22;53236;43.666;18.444;2023-04-03T02:30:26;5.50;99.90
65462;DHT22;53236;43.666;18.444;2023-04-03T02:32:52;5.50;99.90
65462;DHT22;53236;43.666;18.444;2023-04-03T02:35:17;5.60;99.90
65462;DHT22;53236;43.666;18.444;2023-04-03T02:37:43;5.60;99.90
65462;DHT22;53236;43.666;18.444;2023-04-03T02:40:09;5.60;99.90
65462;DHT22;53236;43.666;18.444;2023-04-03T02:42:37;5.60;99.90
65462;DHT22;53236;43.666;18.444;2023-04-03T02:45:02;5.70;99.90
65462;DHT22;53236;43.666;18.444;2023-04-03T02:47:28;5.60;99.90
65462;DHT22;53236;43.666;18.444;2023-04-03T02:49:54;5.70;99.90
65462;DHT22;53236;43.666;18.444;2023-04-03T02:52:20;5.70;99.90
65462;DHT22;53236;43.666;18.444;2023-04-03T02:54:46;5.70;99.90
65462;DHT22;53236;43.666;18.444;2023-04-03T02:57:12;5.70;99.90
65462;DHT22;53236;43.666;18.444;2023-04-03T02:59:38;5.70;99.90
65462;DHT22;53236;43.666;18.444;2023-04-03T03:02:08;5.70;99.90
65462;DHT22;53236;43.666;18.444;2023-04-03T03:04:34;5.70;99.90
65462;DHT22;53236;43.666;18.444;2023-04-03T03:07:00;5.70;99.90
65462;DHT22;53236;43.666;18.444;2023-04-03T03:09:25;5.70;99.90
65462;DHT22;53236;43.666;18.444;2023-04-03T03:11:51;5.60;99.90
65462;DHT22;53236;43.666;18.444;2023-04-03T03:14:17;5.60;99.90
65462;DHT22;53236;43.666;18.444;2023-04-03T03:16:43;5.60;99.90
65462;DHT22;53236;43.666;18.444;2023-04-03T03:19:09;5.60;99.90
65462;DHT22;53236;43.666;18.444;2023-04-03T03:21:35;5.60;99.90
65462;DHT22;53236;43.666;18.444;2023-04-03T03:24:01;5.60;99.90
65462;DHT22;53236;43.666;18.444;2023-04-03T03:26:27;5.60;99.90
65462;DHT22;53236;43.666;18.444;2023-04-03T03:28:53;5.60;99.90
65462;DHT22;53236;43.666;18.444;2023-04-03T03:31:18;5.50;99.90
65462;DHT22;53236;43.666;18.444;2023-04-03T03:33:44;5.50;99.90
65462;DHT22;53236;43.666;18.444;2023-04-03T03:36:10;5.50;99.90
65462;DHT22;53236;43.666;18.444;2023-04-03T03:38:36;5.50;99.90
65462;DHT22;53236;43.666;18.444;2023-04-03T03:41:02;5.50;99.90
65462;DHT22;53236;43.666;18.444;2023-04-03T03:43:28;5.40;99.90
65462;DHT22;53236;43.666;18.444;2023-04-03T03:45:54;5.40;99.90
65462;DHT22;53236;43.666;18.444;2023-04-03T03:48:21;5.30;99.90
65462;DHT22;53236;43.666;18.444;2023-04-03T03:50:47;5.40;99.90
65462;DHT22;53236;43.666;18.444;2023-04-03T03:53:13;5.40;99.90
65462;DHT22;53236;43.666;18.444;2023-04-03T03:55:39;5.50;99.90
65462;DHT22;53236;43.666;18.444;2023-04-03T03:58:05;5.50;99.90
65462;DHT22;53236;43.666;18.444;2023-04-03T04:00:31;5.40;99.90
65462;DHT22;53236;43.666;18.444;2023-04-03T04:02:56;5.40;99.90
65462;DHT22;53236;43.666;18.444;2023-04-03T04:05:22;5.40;99.90
65462;DHT22;53236;43.666;18.444;2023-04-03T04:07:48;5.40;99.90
65462;DHT22;53236;43.666;18.444;2023-04-03T04:10:14;5.40;99.90
65462;DHT22;53236;43.666;18.444;2023-04-03T04:12:40;5.50;99.90
65462;DHT22;53236;43.666;18.444;2023-04-03T04:15:06;5.50;99.90
65462;DHT22;53236;43.666;18.444;2023-04-03T04:17:32;5.50;99.90
65462;DHT22;53236;43.666;18.444;2023-04-03T04:19:57;5.40;99.90
65462;DHT22;53236;43.666;18.444;2023-04-03T04:22:23;5.40;99.90
65462;DHT22;53236;43.666;18.444;2023-04-03T04:24:49;5.50;99.90
65462;DHT22;53236;43.666;18.444;2023-04-03T04:27:15;5.40;99.90
65462;DHT22;53236;43.666;18.444;2023-04-03T04:29:41;5.40;99.90
65462;DHT22;53236;43.666;18.444;2023-04-03T04:32:07;5.50;99.90
65462;DHT22;53236;43.666;18.444;2023-04-03T04:34:34;5.50;99.90
65462;DHT22;53236;43.666;18.444;2023-04-03T04:37:00;5.50;99.90
65462;DHT22;53236;43.666;18.444;2023-04-03T04:39:25;5.60;99.90
65462;DHT22;53236;43.666;18.444;2023-04-03T04:41:51;5.60;99.90
65462;DHT22;53236;43.666;18.444;2023-04-03T04:44:17;5.60;99.90
65462;DHT22;53236;43.666;18.444;2023-04-03T04:46:42;5.50;99.90
65462;DHT22;53236;43.666;18.444;2023-04-03T04:49:08;5.50;99.90
65462;DHT22;53236;43.666;18.444;2023-04-03T04:51:34;5.50;99.90
65462;DHT22;53236;43.666;18.444;2023-04-03T04:54:00;5.50;99.90
65462;DHT22;53236;43.666;18.444;2023-04-03T04:56:25;5.50;99.90
65462;DHT22;53236;43.666;18.444;2023-04-03T04:58:51;5.50;99.90
65462;DHT22;53236;43.666;18.444;2023-04-03T05:01:17;5.40;99.90
65462;DHT22;53236;43.666;18.444;2023-04-03T05:03:44;5.50;99.90
65462;DHT22;53236;43.666;18.444;2023-04-03T05:06:10;5.40;99.90
65462;DHT22;53236;43.666;18.444;2023-04-03T05:08:35;5.50;99.90
65462;DHT22;53236;43.666;18.444;2023-04-03T05:11:01;5.40;99.90
65462;DHT22;53236;43.666;18.444;2023-04-03T05:13:27;5.40;99.90
65462;DHT22;53236;43.666;18.444;2023-04-03T05:15:52;5.40;99.90
65462;DHT22;53236;43.666;18.444;2023-04-03T05:18:18;5.30;99.90
65462;DHT22;53236;43.666;18.444;2023-04-03T05:20:44;5.20;99.90
65462;DHT22;53236;43.666;18.444;2023-04-03T05:23:10;5.20;99.90
65462;DHT22;53236;43.666;18.444;2023-04-03T05:25:40;5.10;99.90
65462;DHT22;53236;43.666;18.444;2023-04-03T05:28:06;5.00;99.90
65462;DHT22;53236;43.666;18.444;2023-04-03T05:30:32;4.90;99.90
65462;DHT22;53236;43.666;18.444;2023-04-03T05:32:58;4.90;99.90
65462;DHT22;53236;43.666;18.444;2023-04-03T05:35:24;4.90;99.90
65462;DHT22;53236;43.666;18.444;2023-04-03T05:37:50;4.80;99.90
65462;DHT22;53236;43.666;18.444;2023-04-03T05:40:16;4.80;99.90
65462;DHT22;53236;43.666;18.444;2023-04-03T05:42:42;4.70;99.90
65462;DHT22;53236;43.666;18.444;2023-04-03T05:45:08;4.70;99.90
65462;DHT22;53236;43.666;18.444;2023-04-03T05:47:33;4.60;99.90
65462;DHT22;53236;43.666;18.444;2023-04-03T05:49:59;4.60;99.90
65462;DHT22;53236;43.666;18.444;2023-04-03T05:52:26;4.60;99.90
65462;DHT22;53236;43.666;18.444;2023-04-03T05:54:52;4.60;99.90
65462;DHT22;53236;43.666;18.444;2023-04-03T05:57:18;4.50;99.90
65462;DHT22;53236;43.666;18.444;2023-04-03T05:59:45;4.50;99.90
65462;DHT22;53236;43.666;18.444;2023-04-03T06:02:19;4.60;99.90
65462;DHT22;53236;43.666;18.444;2023-04-03T06:04:45;4.60;99.90
65462;DHT22;53236;43.666;18.444;2023-04-03T06:07:16;4.40;99.90
65462;DHT22;53236;43.666;18.444;2023-04-03T06:09:43;4.50;99.90
65462;DHT22;53236;43.666;18.444;2023-04-03T06:12:08;4.40;99.90
65462;DHT22;53236;43.666;18.444;2023-04-03T06:14:35;4.40;99.90
65462;DHT22;53236;43.666;18.444;2023-04-03T06:17:01;4.40;99.90
65462;DHT22;53236;43.666;18.444;2023-04-03T06:19:27;4.50;99.90
65462;DHT22;53236;43.666;18.444;2023-04-03T06:21:53;4.40;99.90
65462;DHT22;53236;43.666;18.444;2023-04-03T06:24:19;4.50;99.90
65462;DHT22;53236;43.666;18.444;2023-04-03T06:26:47;4.40;99.90
65462;DHT22;53236;43.666;18.444;2023-04-03T06:29:14;4.30;99.90
65462;DHT22;53236;43.666;18.444;2023-04-03T06:31:40;4.30;99.90
65462;DHT22;53236;43.666;18.444;2023-04-03T06:34:06;4.20;99.90
65462;DHT22;53236;43.666;18.444;2023-04-03T06:36:34;4.20;99.90
65462;DHT22;53236;43.666;18.444;2023-04-03T06:39:00;4.20;99.90
65462;DHT22;53236;43.666;18.444;2023-04-03T06:41:27;4.20;99.90
65462;DHT22;53236;43.666;18.444;2023-04-03T06:43:52;4.20;99.90
65462;DHT22;53236;43.666;18.444;2023-04-03T06:46:21;4.10;99.90
65462;DHT22;53236;43.666;18.444;2023-04-03T06:48:47;3.90;99.90
65462;DHT22;53236;43.666;18.444;2023-04-03T06:51:20;3.90;99.90
65462;DHT22;53236;43.666;18.444;2023-04-03T06:53:51;3.90;99.90
65462;DHT22;53236;43.666;18.444;2023-04-03T06:56:17;3.90;99.90
65462;DHT22;53236;43.666;18.444;2023-04-03T06:58:43;3.80;99.90
65462;DHT22;53236;43.666;18.444;2023-04-03T07:01:10;3.80;99.90
65462;DHT22;53236;43.666;18.444;2023-04-03T07:03:37;3.80;99.90
65462;DHT22;53236;43.666;18.444;2023-04-03T07:06:04;3.70;99.90
65462;DHT22;53236;43.666;18.444;2023-04-03T07:08:31;3.80;99.90
65462;DHT22;53236;43.666;18.444;2023-04-03T07:10:57;3.80;99.90
65462;DHT22;53236;43.666;18.444;2023-04-03T07:13:23;3.70;99.90
65462;DHT22;53236;43.666;18.444;2023-04-03T07:15:49;3.80;99.90
65462;DHT22;53236;43.666;18.444;2023-04-03T07:18:16;3.80;99.90
65462;DHT22;53236;43.666;18.444;2023-04-03T07:20:42;3.70;99.90
65462;DHT22;53236;43.666;18.444;2023-04-03T07:23:08;3.70;99.90
65462;DHT22;53236;43.666;18.444;2023-04-03T07:25:34;3.80;99.90
65462;DHT22;53236;43.666;18.444;2023-04-03T07:28:00;3.80;99.90
65462;DHT22;53236;43.666;18.444;2023-04-03T07:30:26;3.80;99.90
65462;DHT22;53236;43.666;18.444;2023-04-03T07:32:52;3.80;99.90
65462;DHT22;53236;43.666;18.444;2023-04-03T07:35:18;3.80;99.90
65462;DHT22;53236;43.666;18.444;2023-04-03T07:37:44;3.70;99.90
65462;DHT22;53236;43.666;18.444;2023-04-03T07:40:10;3.70;99.90
65462;DHT22;53236;43.666;18.444;2023-04-03T07:42:36;3.90;99.90
65462;DHT22;53236;43.666;18.444;2023-04-03T07:45:03;3.90;99.90
65462;DHT22;53236;43.666;18.444;2023-04-03T07:47:29;4.00;99.90
65462;DHT22;53236;43.666;18.444;2023-04-03T07:49:54;4.10;99.90
65462;DHT22;53236;43.666;18.444;2023-04-03T07:52:22;4.10;99.90
65462;DHT22;53236;43.666;18.444;2023-04-03T07:54:48;4.20;99.90
65462;DHT22;53236;43.666;18.444;2023-04-03T07:57:14;4.30;99.90
65462;DHT22;53236;43.666;18.444;2023-04-03T07:59:40;4.40;99.90
65462;DHT22;53236;43.666;18.444;2023-04-03T08:02:09;4.50;99.90
65462;DHT22;53236;43.666;18.444;2023-04-03T08:04:35;4.50;99.90
65462;DHT22;53236;43.666;18.444;2023-04-03T08:07:01;4.40;99.90
65462;DHT22;53236;43.666;18.444;2023-04-03T08:09:27;4.30;99.90
65462;DHT22;53236;43.666;18.444;2023-04-03T08:11:52;4.30;99.90
65462;DHT22;53236;43.666;18.444;2023-04-03T08:14:19;4.30;99.90
65462;DHT22;53236;43.666;18.444;2023-04-03T08:16:46;4.30;99.90
65462;DHT22;53236;43.666;18.444;2023-04-03T08:19:13;4.40;99.90
65462;DHT22;53236;43.666;18.444;2023-04-03T08:21:42;4.30;99.90
65462;DHT22;53236;43.666;18.444;2023-04-03T08:24:08;4.30;99.90
65462;DHT22;53236;43.666;18.444;2023-04-03T08:26:34;4.30;99.90
65462;DHT22;53236;43.666;18.444;2023-04-03T08:29:00;4.30;99.90
65462;DHT22;53236;43.666;18.444;2023-04-03T08:31:26;4.00;99.90
65462;DHT22;53236;43.666;18.444;2023-04-03T08:33:52;4.00;99.90
65462;DHT22;53236;43.666;18.444;2023-04-03T08:36:21;3.90;99.90
65462;DHT22;53236;43.666;18.444;2023-04-03T08:38:47;4.00;99.90
65462;DHT22;53236;43.666;18.444;2023-04-03T08:41:33;4.00;99.90
65462;DHT22;53236;43.666;18.444;2023-04-03T08:49:33;4.20;99.90
65462;DHT22;53236;43.666;18.444;2023-04-03T08:52:05;4.20;99.90
65462;DHT22;53236;43.666;18.444;2023-04-03T08:54:40;4.30;99.90
65462;DHT22;53236;43.666;18.444;2023-04-03T08:57:10;4.40;99.90
65462;DHT22;53236;43.666;18.444;2023-04-03T08:59:38;4.60;99.90
65462;DHT22;53236;43.666;18.444;2023-04-03T09:02:21;4.70;99.90
65462;DHT22;53236;43.666;18.444;2023-04-03T09:04:48;4.80;99.90
65462;DHT22;53236;43.666;18.444;2023-04-03T09:07:25;4.80;99.90
65462;DHT22;53236;43.666;18.444;2023-04-03T09:09:59;4.80;99.90
65462;DHT22;53236;43.666;18.444;2023-04-03T09:12:37;4.80;99.90
65462;DHT22;53236;43.666;18.444;2023-04-03T09:15:20;4.90;99.90
65462;DHT22;53236;43.666;18.444;2023-04-03T09:18:01;5.00;99.90
65462;DHT22;53236;43.666;18.444;2023-04-03T09:24:00;4.90;99.90
65462;DHT22;53236;43.666;18.444;2023-04-03T09:26:04;5.00;99.90
65462;DHT22;53236;43.666;18.444;2023-04-03T09:28:35;5.00;99.90
65462;DHT22;53236;43.666;18.444;2023-04-03T09:33:42;5.20;99.90
65462;DHT22;53236;43.666;18.444;2023-04-03T09:36:07;5.30;99.90
65462;DHT22;53236;43.666;18.444;2023-04-03T09:38:33;5.40;99.90
65462;DHT22;53236;43.666;18.444;2023-04-03T09:41:06;5.60;99.90
65462;DHT22;53236;43.666;18.444;2023-04-03T09:43:34;5.70;99.90
65462;DHT22;53236;43.666;18.444;2023-04-03T09:49:03;6.00;99.90
65462;DHT22;53236;43.666;18.444;2023-04-03T09:51:31;5.80;99.90
65462;DHT22;53236;43.666;18.444;2023-04-03T09:53:57;5.90;99.90
65462;DHT22;53236;43.666;18.444;2023-04-03T09:56:26;5.80;99.90
65462;DHT22;53236;43.666;18.444;2023-04-03T10:01:34;6.10;99.90
65462;DHT22;53236;43.666;18.444;2023-04-03T10:04:14;5.90;99.90
65462;DHT22;53236;43.666;18.444;2023-04-03T10:06:41;6.00;99.90
65462;DHT22;53236;43.666;18.444;2023-04-03T10:12:08;5.90;99.90
65462;DHT22;53236;43.666;18.444;2023-04-03T10:19:57;5.90;99.90
65462;DHT22;53236;43.666;18.444;2023-04-03T10:31:46;6.00;99.90
65462;DHT22;53236;43.666;18.444;2023-04-03T10:34:42;6.40;99.90
65462;DHT22;53236;43.666;18.444;2023-04-03T10:37:29;6.50;99.90
65462;DHT22;53236;43.666;18.444;2023-04-03T10:49:12;6.10;99.90
65462;DHT22;53236;43.666;18.444;2023-04-03T10:51:48;5.80;99.90
65462;DHT22;53236;43.666;18.444;2023-04-03T10:57:12;5.90;99.90
65462;DHT22;53236;43.666;18.444;2023-04-03T10:59:51;5.90;99.90
65462;DHT22;53236;43.666;18.444;2023-04-03T11:02:30;5.80;99.90
65462;DHT22;53236;43.666;18.444;2023-04-03T11:05:03;5.80;99.90
65462;DHT22;53236;43.666;18.444;2023-04-03T11:07:38;5.60;99.90
65462;DHT22;53236;43.666;18.444;2023-04-03T11:10:14;5.60;99.90
65462;DHT22;53236;43.666;18.444;2023-04-03T11:13:01;5.70;99.90
65462;DHT22;53236;43.666;18.444;2023-04-03T11:15:32;5.70;99.90
65462;DHT22;53236;43.666;18.444;2023-04-03T11:18:04;5.80;99.90
65462;DHT22;53236;43.666;18.444;2023-04-03T11:20:33;5.80;99.90
65462;DHT22;53236;43.666;18.444;2023-04-03T11:25:53;5.80;99.90
65462;DHT22;53236;43.666;18.444;2023-04-03T11:28:19;5.70;99.90
65462;DHT22;53236;43.666;18.444;2023-04-03T11:36:22;5.80;99.90
65462;DHT22;53236;43.666;18.444;2023-04-03T11:38:55;5.60;99.90
65462;DHT22;53236;43.666;18.444;2023-04-03T11:41:27;5.50;99.90
65462;DHT22;53236;43.666;18.444;2023-04-03T11:43:59;5.60;99.90
65462;DHT22;53236;43.666;18.444;2023-04-03T11:49:51;5.60;99.90
65462;DHT22;53236;43.666;18.444;2023-04-03T12:05:56;5.80;99.90
65462;DHT22;53236;43.666;18.444;2023-04-03T12:08:27;5.80;99.90
65462;DHT22;53236;43.666;18.444;2023-04-03T12:22:05;5.70;99.90
65462;DHT22;53236;43.666;18.444;2023-04-03T12:26:47;5.50;99.90
65462;DHT22;53236;43.666;18.444;2023-04-03T12:45:22;5.40;99.90
65462;DHT22;53236;43.666;18.444;2023-04-03T12:47:54;5.40;99.90
65462;DHT22;53236;43.666;18.444;2023-04-03T12:50:31;5.40;99.90
65462;DHT22;53236;43.666;18.444;2023-04-03T12:53:18;5.30;99.90
65462;DHT22;53236;43.666;18.444;2023-04-03T12:55:44;5.10;99.90
65462;DHT22;53236;43.666;18.444;2023-04-03T12:58:24;5.00;99.90
65462;DHT22;53236;43.666;18.444;2023-04-03T13:03:26;4.70;99.90
65462;DHT22;53236;43.666;18.444;2023-04-03T13:06:00;4.70;99.90
65462;DHT22;53236;43.666;18.444;2023-04-03T13:08:27;4.60;99.90
65462;DHT22;53236;43.666;18.444;2023-04-03T13:11:03;4.60;99.90
65462;DHT22;53236;43.666;18.444;2023-04-03T13:13:31;4.50;99.90
65462;DHT22;53236;43.666;18.444;2023-04-03T13:15:57;4.40;99.90
65462;DHT22;53236;43.666;18.444;2023-04-03T13:18:30;4.30;99.90
65462;DHT22;53236;43.666;18.444;2023-04-03T13:21:03;4.30;99.90
65462;DHT22;53236;43.666;18.444;2023-04-03T13:23:30;4.40;99.90
65462;DHT22;53236;43.666;18.444;2023-04-03T13:25:57;4.30;99.90
65462;DHT22;53236;43.666;18.444;2023-04-03T13:28:27;4.30;99.90
65462;DHT22;53236;43.666;18.444;2023-04-03T13:31:38;4.30;99.90
65462;DHT22;53236;43.666;18.444;2023-04-03T13:34:12;4.30;99.90
65462;DHT22;53236;43.666;18.444;2023-04-03T13:36:45;4.30;99.90
65462;DHT22;53236;43.666;18.444;2023-04-03T13:41:42;4.20;99.90
65462;DHT22;53236;43.666;18.444;2023-04-03T13:46:51;4.10;99.90
65462;DHT22;53236;43.666;18.444;2023-04-03T13:51:49;4.10;99.90
65462;DHT22;53236;43.666;18.444;2023-04-03T13:54:24;4.20;99.90
65462;DHT22;53236;43.666;18.444;2023-04-03T13:56:56;4.10;99.90
65462;DHT22;53236;43.666;18.444;2023-04-03T13:59:27;4.00;99.90
65462;DHT22;53236;43.666;18.444;2023-04-03T14:04:25;3.90;99.90
65462;DHT22;53236;43.666;18.444;2023-04-03T14:06:53;3.90;99.90
65462;DHT22;53236;43.666;18.444;2023-04-03T14:09:20;3.90;99.90
65462;DHT22;53236;43.666;18.444;2023-04-03T14:11:48;4.00;99.90
65462;DHT22;53236;43.666;18.444;2023-04-03T14:14:23;4.10;99.90
65462;DHT22;53236;43.666;18.444;2023-04-03T14:16:55;4.00;99.90
65462;DHT22;53236;43.666;18.444;2023-04-03T14:19:30;4.10;99.90
65462;DHT22;53236;43.666;18.444;2023-04-03T14:21:57;4.00;99.90
65462;DHT22;53236;43.666;18.444;2023-04-03T14:24:23;4.00;99.90
65462;DHT22;53236;43.666;18.444;2023-04-03T14:26:53;3.90;99.90
65462;DHT22;53236;43.666;18.444;2023-04-03T14:29:20;3.90;99.90
65462;DHT22;53236;43.666;18.444;2023-04-03T14:31:47;3.80;99.90
65462;DHT22;53236;43.666;18.444;2023-04-03T14:34:15;3.90;99.90
65462;DHT22;53236;43.666;18.444;2023-04-03T14:36:43;3.80;99.90
65462;DHT22;53236;43.666;18.444;2023-04-03T14:39:15;3.70;99.90
65462;DHT22;53236;43.666;18.444;2023-04-03T14:41:42;3.70;99.90
65462;DHT22;53236;43.666;18.444;2023-04-03T14:44:08;3.70;99.90
65462;DHT22;53236;43.666;18.444;2023-04-03T14:46:40;3.70;99.90
65462;DHT22;53236;43.666;18.444;2023-04-03T14:49:15;3.70;99.90
65462;DHT22;53236;43.666;18.444;2023-04-03T14:51:43;3.60;99.90
65462;DHT22;53236;43.666;18.444;2023-04-03T14:54:20;3.60;99.90
65462;DHT22;53236;43.666;18.444;2023-04-03T14:56:51;3.70;99.90
65462;DHT22;53236;43.666;18.444;2023-04-03T14:59:17;3.60;99.90
65462;DHT22;53236;43.666;18.444;2023-04-03T15:01:45;3.50;99.90
65462;DHT22;53236;43.666;18.444;2023-04-03T15:04:16;3.50;99.90
65462;DHT22;53236;43.666;18.444;2023-04-03T15:06:43;3.40;99.90
65462;DHT22;53236;43.666;18.444;2023-04-03T15:11:45;3.20;99.90
65462;DHT22;53236;43.666;18.444;2023-04-03T15:14:10;3.20;99.90
65462;DHT22;53236;43.666;18.444;2023-04-03T15:16:36;3.20;99.90
65462;DHT22;53236;43.666;18.444;2023-04-03T15:19:02;3.30;99.90
65462;DHT22;53236;43.666;18.444;2023-04-03T15:21:28;3.30;99.90
65462;DHT22;53236;43.666;18.444;2023-04-03T15:23:54;3.20;99.90
65462;DHT22;53236;43.666;18.444;2023-04-03T15:26:19;3.20;99.90
65462;DHT22;53236;43.666;18.444;2023-04-03T15:28:46;3.20;99.90
65462;DHT22;53236;43.666;18.444;2023-04-03T15:31:12;3.10;99.90
65462;DHT22;53236;43.666;18.444;2023-04-03T15:33:38;3.20;99.90
65462;DHT22;53236;43.666;18.444;2023-04-03T15:36:04;3.10;99.90
65462;DHT22;53236;43.666;18.444;2023-04-03T15:38:31;3.10;99.90
65462;DHT22;53236;43.666;18.444;2023-04-03T15:40:57;3.20;99.90
65462;DHT22;53236;43.666;18.444;2023-04-03T15:43:23;3.20;99.90
65462;DHT22;53236;43.666;18.444;2023-04-03T15:45:49;3.20;99.90
65462;DHT22;53236;43.666;18.444;2023-04-03T15:48:16;3.20;99.90
65462;DHT22;53236;43.666;18.444;2023-04-03T15:50:42;3.10;99.90
65462;DHT22;53236;43.666;18.444;2023-04-03T15:53:08;3.10;99.90
65462;DHT22;53236;43.666;18.444;2023-04-03T15:55:36;3.10;99.90
65462;DHT22;53236;43.666;18.444;2023-04-03T15:58:02;3.10;99.90
65462;DHT22;53236;43.666;18.444;2023-04-03T16:00:29;3.00;99.90
65462;DHT22;53236;43.666;18.444;2023-04-03T16:02:59;3.00;99.90
65462;DHT22;53236;43.666;18.444;2023-04-03T16:05:25;2.90;99.90
65462;DHT22;53236;43.666;18.444;2023-04-03T16:07:51;2.90;99.90
65462;DHT22;53236;43.666;18.444;2023-04-03T16:10:18;2.90;99.90
65462;DHT22;53236;43.666;18.444;2023-04-03T16:12:45;2.90;99.90
65462;DHT22;53236;43.666;18.444;2023-04-03T16:15:11;2.80;99.90
65462;DHT22;53236;43.666;18.444;2023-04-03T16:17:37;2.80;99.90
65462;DHT22;53236;43.666;18.444;2023-04-03T16:20:04;2.80;99.90
65462;DHT22;53236;43.666;18.444;2023-04-03T16:22:32;2.70;99.90
65462;DHT22;53236;43.666;18.444;2023-04-03T16:24:58;2.70;99.90
65462;DHT22;53236;43.666;18.444;2023-04-03T16:27:24;2.70;99.90
65462;DHT22;53236;43.666;18.444;2023-04-03T16:29:54;2.70;99.90
65462;DHT22;53236;43.666;18.444;2023-04-03T16:32:20;2.60;99.90
65462;DHT22;53236;43.666;18.444;2023-04-03T16:34:47;2.70;99.90
65462;DHT22;53236;43.666;18.444;2023-04-03T16:37:13;2.60;99.90
65462;DHT22;53236;43.666;18.444;2023-04-03T16:39:39;2.60;99.90
65462;DHT22;53236;43.666;18.444;2023-04-03T16:42:05;2.70;99.90
65462;DHT22;53236;43.666;18.444;2023-04-03T16:44:31;2.70;99.90
65462;DHT22;53236;43.666;18.444;2023-04-03T16:46:56;2.60;99.90
65462;DHT22;53236;43.666;18.444;2023-04-03T16:49:22;2.60;99.90
65462;DHT22;53236;43.666;18.444;2023-04-03T16:51:48;2.60;99.90
65462;DHT22;53236;43.666;18.444;2023-04-03T16:54:14;2.60;99.90
65462;DHT22;53236;43.666;18.444;2023-04-03T16:56:40;2.50;99.90
65462;DHT22;53236;43.666;18.444;2023-04-03T16:59:06;2.50;99.90
65462;DHT22;53236;43.666;18.444;2023-04-03T17:01:32;2.50;99.90
65462;DHT22;53236;43.666;18.444;2023-04-03T17:03:58;2.50;99.90
65462;DHT22;53236;43.666;18.444;2023-04-03T17:06:24;2.50;99.90
65462;DHT22;53236;43.666;18.444;2023-04-03T17:08:51;2.50;99.90
65462;DHT22;53236;43.666;18.444;2023-04-03T17:11:17;2.50;99.90
65462;DHT22;53236;43.666;18.444;2023-04-03T17:13:43;2.50;99.90
65462;DHT22;53236;43.666;18.444;2023-04-03T17:16:13;2.50;99.90
65462;DHT22;53236;43.666;18.444;2023-04-03T17:18:39;2.40;99.90
65462;DHT22;53236;43.666;18.444;2023-04-03T17:21:05;2.40;99.90
65462;DHT22;53236;43.666;18.444;2023-04-03T17:23:32;2.40;99.90
65462;DHT22;53236;43.666;18.444;2023-04-03T17:26:00;2.40;99.90
65462;DHT22;53236;43.666;18.444;2023-04-03T17:28:26;2.30;99.90
65462;DHT22;53236;43.666;18.444;2023-04-03T17:30:56;2.40;99.90
65462;DHT22;53236;43.666;18.444;2023-04-03T17:33:22;2.40;99.90